sensor_id;sensor_type;location;lat;lon;timestamp;temperature;humidity
18287;DHT22;9269;50.838;12.094;2023-04-24T00:01:50;18.10;42.40
18287;DHT22;9269;50.838;12.094;2023-04-24T00:04:20;18.10;42.60
18287;DHT22;9269;50.838;12.094;2023-04-24T00:06:58;18.10;42.60
18287;DHT22;9269;50.838;12.094;2023-04-24T00:09:27;18.00;42.20
18287;DHT22;9269;50.838;12.094;2023-04-24T00:11:55;18.10;42.40
18287;DHT22;9269;50.838;12.094;2023-04-24T00:14:33;18.00;42.80
18287;DHT22;9269;50.838;12.094;2023-04-24T00:17:05;17.90;42.90
18287;DHT22;9269;50.838;12.094;2023-04-24T00:19:34;17.90;42.50
18287;DHT22;9269;50.838;12.094;2023-04-24T00:22:05;17.80;42.90
18287;DHT22;9269;50.838;12.094;2023-04-24T00:24:40;17.80;42.80
18287;DHT22;9269;50.838;12.094;2023-04-24T00:27:09;17.80;43.20
18287;DHT22;9269;50.838;12.094;2023-04-24T00:30:03;17.70;43.00
18287;DHT22;9269;50.838;12.094;2023-04-24T00:32:40;17.80;43.20
18287;DHT22;9269;50.838;12.094;2023-04-24T00:35:34;17.70;43.00
18287;DHT22;9269;50.838;12.094;2023-04-24T00:38:03;17.80;42.90
18287;DHT22;9269;50.838;12.094;2023-04-24T00:40:57;17.50;43.40
18287;DHT22;9269;50.838;12.094;2023-04-24T00:43:31;17.50;43.40
18287;DHT22;9269;50.838;12.094;2023-04-24T00:46:00;17.70;43.00
18287;DHT22;9269;50.838;12.094;2023-04-24T00:48:44;17.60;43.70
18287;DHT22;9269;50.838;12.094;2023-04-24T00:51:15;17.50;43.70
18287;DHT22;9269;50.838;12.094;2023-04-24T00:53:51;17.50;43.80
18287;DHT22;9269;50.838;12.094;2023-04-24T00:56:20;17.40;43.60
18287;DHT22;9269;50.838;12.094;2023-04-24T00:58:48;17.60;43.40
18287;DHT22;9269;50.838;12.094;2023-04-24T01:01:17;17.60;43.10
18287;DHT22;9269;50.838;12.094;2023-04-24T01:04:02;17.50;43.10
18287;DHT22;9269;50.838;12.094;2023-04-24T01:06:31;17.50;42.90
18287;DHT22;9269;50.838;12.094;2023-04-24T01:09:08;17.60;43.10
18287;DHT22;9269;50.838;12.094;2023-04-24T01:11:38;17.50;43.10
18287;DHT22;9269;50.838;12.094;2023-04-24T01:14:09;17.50;43.70
18287;DHT22;9269;50.838;12.094;2023-04-24T01:17:02;17.40;43.50
18287;DHT22;9269;50.838;12.094;2023-04-24T01:20:00;17.30;43.70
18287;DHT22;9269;50.838;12.094;2023-04-24T01:22:36;17.30;43.70
18287;DHT22;9269;50.838;12.094;2023-04-24T01:25:05;17.30;43.20
18287;DHT22;9269;50.838;12.094;2023-04-24T01:27:34;17.20;43.10
18287;DHT22;9269;50.838;12.094;2023-04-24T01:30:03;17.20;43.50
18287;DHT22;9269;50.838;12.094;2023-04-24T01:32:47;17.10;43.90
18287;DHT22;9269;50.838;12.094;2023-04-24T01:35:16;17.20;43.90
18287;DHT22;9269;50.838;12.094;2023-04-24T01:37:46;17.10;44.20
18287;DHT22;9269;50.838;12.094;2023-04-24T01:40:14;17.10;44.30
18287;DHT22;9269;50.838;12.094;2023-04-24T01:42:45;17.10;44.60
18287;DHT22;9269;50.838;12.094;2023-04-24T01:45:38;17.10;44.00
18287;DHT22;9269;50.838;12.094;2023-04-24T01:48:09;17.20;44.10
18287;DHT22;9269;50.838;12.094;2023-04-24T01:51:04;17.10;44.20
18287;DHT22;9269;50.838;12.094;2023-04-24T01:53:34;17.00;43.70
18287;DHT22;9269;50.838;12.094;2023-04-24T01:56:03;17.10;43.40
18287;DHT22;9269;50.838;12.094;2023-04-24T01:58:31;17.00;43.70
18287;DHT22;9269;50.838;12.094;2023-04-24T02:01:00;17.00;43.50
18287;DHT22;9269;50.838;12.094;2023-04-24T02:03:29;17.00;43.70
18287;DHT22;9269;50.838;12.094;2023-04-24T02:05:57;17.00;44.10
18287;DHT22;9269;50.838;12.094;2023-04-24T02:08:26;17.00;44.40
18287;DHT22;9269;50.838;12.094;2023-04-24T02:10:56;17.00;44.20
18287;DHT22;9269;50.838;12.094;2023-04-24T02:13:24;17.00;44.20
18287;DHT22;9269;50.838;12.094;2023-04-24T02:15:59;17.00;44.40
18287;DHT22;9269;50.838;12.094;2023-04-24T02:18:27;17.00;44.00
18287;DHT22;9269;50.838;12.094;2023-04-24T02:21:02;17.00;44.00
18287;DHT22;9269;50.838;12.094;2023-04-24T02:23:31;16.90;44.00
18287;DHT22;9269;50.838;12.094;2023-04-24T02:26:01;16.90;43.70
18287;DHT22;9269;50.838;12.094;2023-04-24T02:28:54;16.90;43.50
18287;DHT22;9269;50.838;12.094;2023-04-24T02:31:24;16.80;43.60
18287;DHT22;9269;50.838;12.094;2023-04-24T02:34:20;16.80;44.00
18287;DHT22;9269;50.838;12.094;2023-04-24T02:36:50;16.80;44.10
18287;DHT22;9269;50.838;12.094;2023-04-24T02:39:21;16.80;43.90
18287;DHT22;9269;50.838;12.094;2023-04-24T02:41:50;16.80;44.00
18287;DHT22;9269;50.838;12.094;2023-04-24T02:47:28;16.70;44.00
18287;DHT22;9269;50.838;12.094;2023-04-24T02:49:56;16.60;44.10
18287;DHT22;9269;50.838;12.094;2023-04-24T02:52:25;16.60;44.10
18287;DHT22;9269;50.838;12.094;2023-04-24T02:54:53;16.50;43.90
18287;DHT22;9269;50.838;12.094;2023-04-24T02:57:23;16.50;44.00
18287;DHT22;9269;50.838;12.094;2023-04-24T02:59:52;16.50;43.90
18287;DHT22;9269;50.838;12.094;2023-04-24T03:02:20;16.50;44.10
18287;DHT22;9269;50.838;12.094;2023-04-24T03:04:49;16.50;44.70
18287;DHT22;9269;50.838;12.094;2023-04-24T03:07:23;16.50;44.90
18287;DHT22;9269;50.838;12.094;2023-04-24T03:09:53;16.50;44.60
18287;DHT22;9269;50.838;12.094;2023-04-24T03:12:22;16.50;44.70
18287;DHT22;9269;50.838;12.094;2023-04-24T03:14:51;16.50;44.70
18287;DHT22;9269;50.838;12.094;2023-04-24T03:17:19;16.50;45.00
18287;DHT22;9269;50.838;12.094;2023-04-24T03:19:57;16.50;44.60
18287;DHT22;9269;50.838;12.094;2023-04-24T03:22:25;16.60;45.40
18287;DHT22;9269;50.838;12.094;2023-04-24T03:25:10;16.60;45.50
18287;DHT22;9269;50.838;12.094;2023-04-24T03:27:39;16.40;45.20
18287;DHT22;9269;50.838;12.094;2023-04-24T03:30:08;16.40;44.90
18287;DHT22;9269;50.838;12.094;2023-04-24T03:32:47;16.40;45.00
18287;DHT22;9269;50.838;12.094;2023-04-24T03:35:16;16.40;44.50
18287;DHT22;9269;50.838;12.094;2023-04-24T03:38:08;16.40;44.80
18287;DHT22;9269;50.838;12.094;2023-04-24T03:40:37;16.40;44.80
18287;DHT22;9269;50.838;12.094;2023-04-24T03:43:08;16.50;44.80
18287;DHT22;9269;50.838;12.094;2023-04-24T03:45:36;16.40;45.00
18287;DHT22;9269;50.838;12.094;2023-04-24T03:48:05;16.30;44.60
18287;DHT22;9269;50.838;12.094;2023-04-24T03:50:34;16.30;44.70
18287;DHT22;9269;50.838;12.094;2023-04-24T03:53:05;16.40;44.80
18287;DHT22;9269;50.838;12.094;2023-04-24T03:55:37;16.40;44.80
18287;DHT22;9269;50.838;12.094;2023-04-24T03:58:07;16.30;44.70
18287;DHT22;9269;50.838;12.094;2023-04-24T04:00:36;16.40;44.90
18287;DHT22;9269;50.838;12.094;2023-04-24T04:03:17;16.30;44.80
18287;DHT22;9269;50.838;12.094;2023-04-24T04:05:45;16.30;44.80
18287;DHT22;9269;50.838;12.094;2023-04-24T04:08:14;16.30;44.70
18287;DHT22;9269;50.838;12.094;2023-04-24T04:10:46;16.30;44.80
18287;DHT22;9269;50.838;12.094;2023-04-24T04:13:16;16.30;44.90
18287;DHT22;9269;50.838;12.094;2023-04-24T04:15:45;16.30;44.90
18287;DHT22;9269;50.838;12.094;2023-04-24T04:21:17;16.20;44.70
18287;DHT22;9269;50.838;12.094;2023-04-24T04:23:50;16.20;45.00
18287;DHT22;9269;50.838;12.094;2023-04-24T04:26:21;16.10;45.30
18287;DHT22;9269;50.838;12.094;2023-04-24T04:28:57;16.10;45.20
18287;DHT22;9269;50.838;12.094;2023-04-24T04:31:26;16.10;45.30
18287;DHT22;9269;50.838;12.094;2023-04-24T04:33:55;16.00;45.00
18287;DHT22;9269;50.838;12.094;2023-04-24T04:36:39;16.00;45.10
18287;DHT22;9269;50.838;12.094;2023-04-24T04:39:08;16.00;45.50
18287;DHT22;9269;50.838;12.094;2023-04-24T04:41:37;16.00;45.60
18287;DHT22;9269;50.838;12.094;2023-04-24T04:44:08;16.00;45.80
18287;DHT22;9269;50.838;12.094;2023-04-24T04:46:38;15.90;45.50
18287;DHT22;9269;50.838;12.094;2023-04-24T04:49:09;16.00;45.40
18287;DHT22;9269;50.838;12.094;2023-04-24T04:52:02;15.90;45.70
18287;DHT22;9269;50.838;12.094;2023-04-24T04:54:33;16.00;45.90
18287;DHT22;9269;50.838;12.094;2023-04-24T04:57:02;16.00;45.90
18287;DHT22;9269;50.838;12.094;2023-04-24T04:59:32;16.00;46.10
18287;DHT22;9269;50.838;12.094;2023-04-24T05:02:01;16.00;45.90
18287;DHT22;9269;50.838;12.094;2023-04-24T05:04:29;16.00;46.00
18287;DHT22;9269;50.838;12.094;2023-04-24T05:06:58;16.10;45.80
18287;DHT22;9269;50.838;12.094;2023-04-24T05:09:27;15.90;46.10
18287;DHT22;9269;50.838;12.094;2023-04-24T05:11:57;16.00;46.00
18287;DHT22;9269;50.838;12.094;2023-04-24T05:14:26;16.00;45.90
18287;DHT22;9269;50.838;12.094;2023-04-24T05:16:56;16.00;45.80
18287;DHT22;9269;50.838;12.094;2023-04-24T05:19:25;16.10;45.60
18287;DHT22;9269;50.838;12.094;2023-04-24T05:21:53;16.10;45.80
18287;DHT22;9269;50.838;12.094;2023-04-24T05:24:22;16.10;45.90
18287;DHT22;9269;50.838;12.094;2023-04-24T05:26:50;16.00;45.70
18287;DHT22;9269;50.838;12.094;2023-04-24T05:29:19;16.10;45.80
18287;DHT22;9269;50.838;12.094;2023-04-24T05:31:49;16.00;46.20
18287;DHT22;9269;50.838;12.094;2023-04-24T05:34:20;16.00;46.00
18287;DHT22;9269;50.838;12.094;2023-04-24T05:36:48;16.10;46.50
18287;DHT22;9269;50.838;12.094;2023-04-24T05:39:17;16.00;46.20
18287;DHT22;9269;50.838;12.094;2023-04-24T05:41:46;16.10;46.30
18287;DHT22;9269;50.838;12.094;2023-04-24T05:44:15;16.10;45.90
18287;DHT22;9269;50.838;12.094;2023-04-24T05:46:43;16.10;45.90
18287;DHT22;9269;50.838;12.094;2023-04-24T06:11:01;16.30;45.70
18287;DHT22;9269;50.838;12.094;2023-04-24T06:28:02;16.50;45.20
18287;DHT22;9269;50.838;12.094;2023-04-24T06:31:13;16.50;45.40
18287;DHT22;9269;50.838;12.094;2023-04-24T06:33:42;16.50;45.40
18287;DHT22;9269;50.838;12.094;2023-04-24T06:36:12;16.50;45.80
18287;DHT22;9269;50.838;12.094;2023-04-24T06:38:40;16.50;45.50
18287;DHT22;9269;50.838;12.094;2023-04-24T06:41:09;16.50;45.70
18287;DHT22;9269;50.838;12.094;2023-04-24T06:43:39;16.60;45.40
18287;DHT22;9269;50.838;12.094;2023-04-24T06:46:08;16.60;45.70
18287;DHT22;9269;50.838;12.094;2023-04-24T06:48:37;16.60;45.50
18287;DHT22;9269;50.838;12.094;2023-04-24T06:51:05;16.70;45.50
18287;DHT22;9269;50.838;12.094;2023-04-24T06:53:34;16.70;45.30
18287;DHT22;9269;50.838;12.094;2023-04-24T06:56:03;16.70;45.10
18287;DHT22;9269;50.838;12.094;2023-04-24T06:58:32;16.80;45.30
18287;DHT22;9269;50.838;12.094;2023-04-24T07:01:01;16.80;45.10
18287;DHT22;9269;50.838;12.094;2023-04-24T07:03:30;16.90;45.40
18287;DHT22;9269;50.838;12.094;2023-04-24T07:05:59;17.00;45.30
18287;DHT22;9269;50.838;12.094;2023-04-24T07:08:27;16.90;45.00
18287;DHT22;9269;50.838;12.094;2023-04-24T07:10:57;17.10;44.90
18287;DHT22;9269;50.838;12.094;2023-04-24T07:13:33;17.10;45.40
18287;DHT22;9269;50.838;12.094;2023-04-24T07:16:29;17.30;45.30
18287;DHT22;9269;50.838;12.094;2023-04-24T07:20:17;17.50;45.10
18287;DHT22;9269;50.838;12.094;2023-04-24T07:29:14;17.80;44.40
18287;DHT22;9269;50.838;12.094;2023-04-24T07:32:19;17.80;44.30
18287;DHT22;9269;50.838;12.094;2023-04-24T07:35:19;17.90;44.20
18287;DHT22;9269;50.838;12.094;2023-04-24T07:38:12;17.90;43.90
18287;DHT22;9269;50.838;12.094;2023-04-24T07:41:16;17.90;43.90
18287;DHT22;9269;50.838;12.094;2023-04-24T07:47:22;18.10;43.70
18287;DHT22;9269;50.838;12.094;2023-04-24T07:50:30;18.20;42.00
18287;DHT22;9269;50.838;12.094;2023-04-24T07:53:25;18.20;41.70
18287;DHT22;9269;50.838;12.094;2023-04-24T07:56:10;18.50;41.40
18287;DHT22;9269;50.838;12.094;2023-04-24T07:58:52;18.60;41.50
18287;DHT22;9269;50.838;12.094;2023-04-24T08:01:32;18.70;40.60
18287;DHT22;9269;50.838;12.094;2023-04-24T08:04:07;18.70;40.40
18287;DHT22;9269;50.838;12.094;2023-04-24T08:07:05;18.80;40.40
18287;DHT22;9269;50.838;12.094;2023-04-24T08:09:48;18.90;40.30
18287;DHT22;9269;50.838;12.094;2023-04-24T08:15:27;18.90;39.40
18287;DHT22;9269;50.838;12.094;2023-04-24T08:17:58;18.90;39.40
18287;DHT22;9269;50.838;12.094;2023-04-24T08:20:32;19.00;39.50
18287;DHT22;9269;50.838;12.094;2023-04-24T08:23:23;19.10;39.60
18287;DHT22;9269;50.838;12.094;2023-04-24T08:26:14;19.10;39.30
18287;DHT22;9269;50.838;12.094;2023-04-24T08:28:53;19.20;38.70
18287;DHT22;9269;50.838;12.094;2023-04-24T08:31:37;19.10;38.30
18287;DHT22;9269;50.838;12.094;2023-04-24T08:34:11;19.20;38.20
18287;DHT22;9269;50.838;12.094;2023-04-24T08:36:43;19.10;37.90
18287;DHT22;9269;50.838;12.094;2023-04-24T08:39:29;19.20;37.50
18287;DHT22;9269;50.838;12.094;2023-04-24T08:42:13;19.30;37.60
18287;DHT22;9269;50.838;12.094;2023-04-24T08:44:46;19.40;37.80
18287;DHT22;9269;50.838;12.094;2023-04-24T08:47:19;19.40;37.50
18287;DHT22;9269;50.838;12.094;2023-04-24T08:49:50;19.40;37.20
18287;DHT22;9269;50.838;12.094;2023-04-24T08:52:21;19.40;37.00
18287;DHT22;9269;50.838;12.094;2023-04-24T08:54:50;19.40;36.30
18287;DHT22;9269;50.838;12.094;2023-04-24T08:57:19;19.50;36.60
18287;DHT22;9269;50.838;12.094;2023-04-24T08:59:47;19.50;36.20
18287;DHT22;9269;50.838;12.094;2023-04-24T09:02:16;19.70;36.20
18287;DHT22;9269;50.838;12.094;2023-04-24T09:04:47;19.60;36.10
18287;DHT22;9269;50.838;12.094;2023-04-24T09:07:18;19.50;36.10
18287;DHT22;9269;50.838;12.094;2023-04-24T09:09:50;19.50;35.60
18287;DHT22;9269;50.838;12.094;2023-04-24T09:12:19;19.50;35.40
18287;DHT22;9269;50.838;12.094;2023-04-24T09:14:51;19.70;35.10
18287;DHT22;9269;50.838;12.094;2023-04-24T09:17:20;19.80;34.30
18287;DHT22;9269;50.838;12.094;2023-04-24T09:20:06;19.90;33.70
18287;DHT22;9269;50.838;12.094;2023-04-24T09:22:34;20.00;32.90
18287;DHT22;9269;50.838;12.094;2023-04-24T09:25:06;20.00;32.10
18287;DHT22;9269;50.838;12.094;2023-04-24T09:27:35;19.90;31.80
18287;DHT22;9269;50.838;12.094;2023-04-24T09:30:23;20.00;31.50
18287;DHT22;9269;50.838;12.094;2023-04-24T09:33:09;20.00;31.40
18287;DHT22;9269;50.838;12.094;2023-04-24T09:35:40;20.20;31.00
18287;DHT22;9269;50.838;12.094;2023-04-24T09:38:09;20.20;30.20
18287;DHT22;9269;50.838;12.094;2023-04-24T09:40:39;20.20;29.80
18287;DHT22;9269;50.838;12.094;2023-04-24T09:43:11;20.10;29.30
18287;DHT22;9269;50.838;12.094;2023-04-24T09:45:39;19.90;29.40
18287;DHT22;9269;50.838;12.094;2023-04-24T09:48:09;19.90;29.00
18287;DHT22;9269;50.838;12.094;2023-04-24T09:50:38;20.00;28.60
18287;DHT22;9269;50.838;12.094;2023-04-24T09:53:06;20.00;29.40
18287;DHT22;9269;50.838;12.094;2023-04-24T09:55:45;20.10;29.10
18287;DHT22;9269;50.838;12.094;2023-04-24T09:58:15;20.20;29.10
18287;DHT22;9269;50.838;12.094;2023-04-24T10:00:45;20.20;28.80
18287;DHT22;9269;50.838;12.094;2023-04-24T10:03:14;20.20;28.50
18287;DHT22;9269;50.838;12.094;2023-04-24T10:05:42;20.10;28.20
18287;DHT22;9269;50.838;12.094;2023-04-24T10:08:14;20.10;28.00
18287;DHT22;9269;50.838;12.094;2023-04-24T10:10:45;20.20;27.30
18287;DHT22;9269;50.838;12.094;2023-04-24T10:13:14;20.20;27.00
18287;DHT22;9269;50.838;12.094;2023-04-24T10:15:43;20.20;26.90
18287;DHT22;9269;50.838;12.094;2023-04-24T10:18:11;20.10;26.60
18287;DHT22;9269;50.838;12.094;2023-04-24T10:20:40;20.10;26.40
18287;DHT22;9269;50.838;12.094;2023-04-24T10:23:09;20.00;26.60
18287;DHT22;9269;50.838;12.094;2023-04-24T10:25:39;20.10;25.90
18287;DHT22;9269;50.838;12.094;2023-04-24T10:28:09;20.10;25.70
18287;DHT22;9269;50.838;12.094;2023-04-24T10:30:39;20.20;26.40
18287;DHT22;9269;50.838;12.094;2023-04-24T10:33:11;20.30;26.00
18287;DHT22;9269;50.838;12.094;2023-04-24T10:35:42;20.60;25.60
18287;DHT22;9269;50.838;12.094;2023-04-24T10:38:14;20.70;25.90
18287;DHT22;9269;50.838;12.094;2023-04-24T10:40:44;20.90;24.90
18287;DHT22;9269;50.838;12.094;2023-04-24T10:43:17;21.20;24.60
18287;DHT22;9269;50.838;12.094;2023-04-24T10:46:01;21.20;24.10
18287;DHT22;9269;50.838;12.094;2023-04-24T10:48:31;21.30;23.60
18287;DHT22;9269;50.838;12.094;2023-04-24T10:50:59;21.40;23.90
18287;DHT22;9269;50.838;12.094;2023-04-24T10:53:30;21.40;24.40
18287;DHT22;9269;50.838;12.094;2023-04-24T10:56:18;21.40;23.70
18287;DHT22;9269;50.838;12.094;2023-04-24T10:58:51;21.40;24.20
18287;DHT22;9269;50.838;12.094;2023-04-24T11:01:24;21.40;23.50
18287;DHT22;9269;50.838;12.094;2023-04-24T11:03:55;21.20;22.50
18287;DHT22;9269;50.838;12.094;2023-04-24T11:06:29;21.20;22.90
18287;DHT22;9269;50.838;12.094;2023-04-24T11:09:03;21.10;23.00
18287;DHT22;9269;50.838;12.094;2023-04-24T11:11:34;21.10;23.10
18287;DHT22;9269;50.838;12.094;2023-04-24T11:14:08;21.10;23.40
18287;DHT22;9269;50.838;12.094;2023-04-24T11:16:39;21.20;23.40
18287;DHT22;9269;50.838;12.094;2023-04-24T11:19:17;21.30;22.50
18287;DHT22;9269;50.838;12.094;2023-04-24T11:21:48;21.40;22.60
18287;DHT22;9269;50.838;12.094;2023-04-24T11:24:23;21.30;22.90
18287;DHT22;9269;50.838;12.094;2023-04-24T11:27:06;21.40;23.00
18287;DHT22;9269;50.838;12.094;2023-04-24T11:29:46;21.30;21.70
18287;DHT22;9269;50.838;12.094;2023-04-24T11:32:18;21.40;21.80
18287;DHT22;9269;50.838;12.094;2023-04-24T11:34:48;21.30;21.20
18287;DHT22;9269;50.838;12.094;2023-04-24T11:37:16;21.20;21.40
18287;DHT22;9269;50.838;12.094;2023-04-24T11:39:45;21.10;21.10
18287;DHT22;9269;50.838;12.094;2023-04-24T11:42:15;21.10;21.20
18287;DHT22;9269;50.838;12.094;2023-04-24T11:44:43;21.10;20.40
18287;DHT22;9269;50.838;12.094;2023-04-24T11:47:16;21.20;20.60
18287;DHT22;9269;50.838;12.094;2023-04-24T11:49:44;21.30;20.30
18287;DHT22;9269;50.838;12.094;2023-04-24T11:52:15;21.30;20.70
18287;DHT22;9269;50.838;12.094;2023-04-24T11:54:48;21.20;19.90
18287;DHT22;9269;50.838;12.094;2023-04-24T11:57:19;21.00;20.40
18287;DHT22;9269;50.838;12.094;2023-04-24T11:59:49;21.00;19.80
18287;DHT22;9269;50.838;12.094;2023-04-24T12:02:22;21.10;20.20
18287;DHT22;9269;50.838;12.094;2023-04-24T12:04:52;21.10;20.90
18287;DHT22;9269;50.838;12.094;2023-04-24T12:07:23;21.10;20.30
18287;DHT22;9269;50.838;12.094;2023-04-24T12:09:56;21.10;19.10
18287;DHT22;9269;50.838;12.094;2023-04-24T12:12:26;21.00;19.20
18287;DHT22;9269;50.838;12.094;2023-04-24T12:14:56;20.90;20.20
18287;DHT22;9269;50.838;12.094;2023-04-24T12:17:28;20.80;20.30
18287;DHT22;9269;50.838;12.094;2023-04-24T12:19:58;20.60;20.30
18287;DHT22;9269;50.838;12.094;2023-04-24T12:22:42;20.50;20.40
18287;DHT22;9269;50.838;12.094;2023-04-24T12:25:11;20.50;20.50
18287;DHT22;9269;50.838;12.094;2023-04-24T12:27:39;20.50;20.60
18287;DHT22;9269;50.838;12.094;2023-04-24T12:30:11;20.40;21.00
18287;DHT22;9269;50.838;12.094;2023-04-24T12:32:46;20.40;21.40
18287;DHT22;9269;50.838;12.094;2023-04-24T12:35:19;20.50;21.90
18287;DHT22;9269;50.838;12.094;2023-04-24T12:37:48;20.60;21.40
18287;DHT22;9269;50.838;12.094;2023-04-24T12:40:20;20.70;21.00
18287;DHT22;9269;50.838;12.094;2023-04-24T12:42:50;20.90;20.80
18287;DHT22;9269;50.838;12.094;2023-04-24T12:45:21;20.80;20.50
18287;DHT22;9269;50.838;12.094;2023-04-24T12:47:53;20.70;20.20
18287;DHT22;9269;50.838;12.094;2023-04-24T12:50:21;20.80;20.70
18287;DHT22;9269;50.838;12.094;2023-04-24T12:52:51;21.00;19.50
18287;DHT22;9269;50.838;12.094;2023-04-24T12:55:19;21.00;18.90
18287;DHT22;9269;50.838;12.094;2023-04-24T12:57:48;21.00;18.80
18287;DHT22;9269;50.838;12.094;2023-04-24T13:00:17;21.00;19.10
18287;DHT22;9269;50.838;12.094;2023-04-24T13:02:46;20.90;18.70
18287;DHT22;9269;50.838;12.094;2023-04-24T13:05:16;20.90;18.60
18287;DHT22;9269;50.838;12.094;2023-04-24T13:07:45;20.90;19.10
18287;DHT22;9269;50.838;12.094;2023-04-24T13:10:13;20.80;20.30
18287;DHT22;9269;50.838;12.094;2023-04-24T13:12:43;20.70;20.30
18287;DHT22;9269;50.838;12.094;2023-04-24T13:15:12;20.70;20.00
18287;DHT22;9269;50.838;12.094;2023-04-24T13:17:42;20.80;19.90
18287;DHT22;9269;50.838;12.094;2023-04-24T13:20:10;21.10;19.00
18287;DHT22;9269;50.838;12.094;2023-04-24T13:22:41;21.20;18.90
18287;DHT22;9269;50.838;12.094;2023-04-24T13:25:09;21.30;18.10
18287;DHT22;9269;50.838;12.094;2023-04-24T13:27:38;21.40;18.30
18287;DHT22;9269;50.838;12.094;2023-04-24T13:30:10;21.40;18.60
18287;DHT22;9269;50.838;12.094;2023-04-24T13:32:40;21.30;17.70
18287;DHT22;9269;50.838;12.094;2023-04-24T13:35:08;21.30;17.50
18287;DHT22;9269;50.838;12.094;2023-04-24T13:37:37;21.20;18.00
18287;DHT22;9269;50.838;12.094;2023-04-24T13:40:08;21.10;18.20
18287;DHT22;9269;50.838;12.094;2023-04-24T13:42:37;21.00;18.30
18287;DHT22;9269;50.838;12.094;2023-04-24T13:45:06;21.10;18.70
18287;DHT22;9269;50.838;12.094;2023-04-24T13:47:57;21.20;18.30
18287;DHT22;9269;50.838;12.094;2023-04-24T13:50:29;21.40;18.00
18287;DHT22;9269;50.838;12.094;2023-04-24T13:52:57;21.50;17.80
18287;DHT22;9269;50.838;12.094;2023-04-24T13:55:31;21.60;17.90
18287;DHT22;9269;50.838;12.094;2023-04-24T13:58:00;21.70;17.80
18287;DHT22;9269;50.838;12.094;2023-04-24T14:00:28;21.70;18.10
18287;DHT22;9269;50.838;12.094;2023-04-24T14:02:57;21.50;17.60
18287;DHT22;9269;50.838;12.094;2023-04-24T14:05:26;21.40;17.50
18287;DHT22;9269;50.838;12.094;2023-04-24T14:07:55;21.20;17.90
18287;DHT22;9269;50.838;12.094;2023-04-24T14:10:23;21.10;17.80
18287;DHT22;9269;50.838;12.094;2023-04-24T14:12:54;21.00;18.10
18287;DHT22;9269;50.838;12.094;2023-04-24T14:15:22;21.00;18.00
18287;DHT22;9269;50.838;12.094;2023-04-24T14:17:52;21.00;18.40
18287;DHT22;9269;50.838;12.094;2023-04-24T14:20:20;20.90;18.20
18287;DHT22;9269;50.838;12.094;2023-04-24T14:22:49;20.80;19.90
18287;DHT22;9269;50.838;12.094;2023-04-24T14:25:18;20.70;20.00
18287;DHT22;9269;50.838;12.094;2023-04-24T14:27:46;20.50;20.00
18287;DHT22;9269;50.838;12.094;2023-04-24T14:30:20;20.40;20.00
18287;DHT22;9269;50.838;12.094;2023-04-24T14:32:49;20.20;19.70
18287;DHT22;9269;50.838;12.094;2023-04-24T14:35:17;20.10;20.30
18287;DHT22;9269;50.838;12.094;2023-04-24T14:37:45;20.10;20.30
18287;DHT22;9269;50.838;12.094;2023-04-24T14:40:15;20.00;20.80
18287;DHT22;9269;50.838;12.094;2023-04-24T14:43:04;20.20;20.50
18287;DHT22;9269;50.838;12.094;2023-04-24T14:45:34;20.20;21.30
18287;DHT22;9269;50.838;12.094;2023-04-24T14:48:02;20.40;21.00
18287;DHT22;9269;50.838;12.094;2023-04-24T14:50:31;20.10;21.10
18287;DHT22;9269;50.838;12.094;2023-04-24T14:52:59;20.00;21.20
18287;DHT22;9269;50.838;12.094;2023-04-24T14:55:29;19.90;21.40
18287;DHT22;9269;50.838;12.094;2023-04-24T14:57:58;19.80;22.50
18287;DHT22;9269;50.838;12.094;2023-04-24T15:00:26;19.70;22.10
18287;DHT22;9269;50.838;12.094;2023-04-24T15:02:56;19.70;22.80
18287;DHT22;9269;50.838;12.094;2023-04-24T15:05:25;19.70;22.90
18287;DHT22;9269;50.838;12.094;2023-04-24T15:07:54;19.70;22.70
18287;DHT22;9269;50.838;12.094;2023-04-24T15:10:22;19.60;23.70
18287;DHT22;9269;50.838;12.094;2023-04-24T15:12:53;19.30;24.00
18287;DHT22;9269;50.838;12.094;2023-04-24T15:15:21;19.20;24.40
18287;DHT22;9269;50.838;12.094;2023-04-24T15:17:50;19.40;24.40
18287;DHT22;9269;50.838;12.094;2023-04-24T15:20:19;19.60;24.40
18287;DHT22;9269;50.838;12.094;2023-04-24T15:22:49;19.70;24.20
18287;DHT22;9269;50.838;12.094;2023-04-24T15:25:18;19.80;23.60
18287;DHT22;9269;50.838;12.094;2023-04-24T15:27:47;19.90;23.70
18287;DHT22;9269;50.838;12.094;2023-04-24T15:30:16;19.80;23.60
18287;DHT22;9269;50.838;12.094;2023-04-24T15:32:44;19.70;23.50
18287;DHT22;9269;50.838;12.094;2023-04-24T15:35:13;19.70;23.70
18287;DHT22;9269;50.838;12.094;2023-04-24T15:37:43;19.80;23.80
18287;DHT22;9269;50.838;12.094;2023-04-24T15:40:12;19.70;23.90
18287;DHT22;9269;50.838;12.094;2023-04-24T15:42:43;19.80;23.60
18287;DHT22;9269;50.838;12.094;2023-04-24T15:45:11;19.90;23.80
18287;DHT22;9269;50.838;12.094;2023-04-24T15:47:40;19.90;23.90
18287;DHT22;9269;50.838;12.094;2023-04-24T15:50:09;20.00;23.80
18287;DHT22;9269;50.838;12.094;2023-04-24T15:52:45;20.00;24.40
18287;DHT22;9269;50.838;12.094;2023-04-24T15:55:13;19.90;24.30
18287;DHT22;9269;50.838;12.094;2023-04-24T15:57:42;19.80;24.10
18287;DHT22;9269;50.838;12.094;2023-04-24T16:00:11;19.80;24.30
18287;DHT22;9269;50.838;12.094;2023-04-24T16:02:40;19.70;24.40
18287;DHT22;9269;50.838;12.094;2023-04-24T16:05:08;19.60;24.60
18287;DHT22;9269;50.838;12.094;2023-04-24T16:07:37;19.60;24.70
18287;DHT22;9269;50.838;12.094;2023-04-24T16:10:09;19.50;24.80
18287;DHT22;9269;50.838;12.094;2023-04-24T16:12:37;19.30;24.90
18287;DHT22;9269;50.838;12.094;2023-04-24T16:15:06;19.30;24.80
18287;DHT22;9269;50.838;12.094;2023-04-24T16:17:37;19.20;25.00
18287;DHT22;9269;50.838;12.094;2023-04-24T16:20:06;19.30;24.90
18287;DHT22;9269;50.838;12.094;2023-04-24T16:22:37;19.30;24.80
18287;DHT22;9269;50.838;12.094;2023-04-24T16:25:08;19.20;24.80
18287;DHT22;9269;50.838;12.094;2023-04-24T16:27:37;19.20;25.00
18287;DHT22;9269;50.838;12.094;2023-04-24T16:30:07;19.20;24.90
18287;DHT22;9269;50.838;12.094;2023-04-24T16:32:35;19.10;24.80
18287;DHT22;9269;50.838;12.094;2023-04-24T16:35:04;19.10;25.10
18287;DHT22;9269;50.838;12.094;2023-04-24T16:37:34;19.10;25.00
18287;DHT22;9269;50.838;12.094;2023-04-24T16:40:03;19.00;25.10
18287;DHT22;9269;50.838;12.094;2023-04-24T16:42:38;19.00;25.20
18287;DHT22;9269;50.838;12.094;2023-04-24T16:45:08;18.80;25.50
18287;DHT22;9269;50.838;12.094;2023-04-24T16:47:37;18.80;25.50
18287;DHT22;9269;50.838;12.094;2023-04-24T16:50:07;18.80;25.60
18287;DHT22;9269;50.838;12.094;2023-04-24T16:52:38;18.60;26.00
18287;DHT22;9269;50.838;12.094;2023-04-24T16:55:09;18.50;26.10
18287;DHT22;9269;50.838;12.094;2023-04-24T16:57:40;18.50;25.90
18287;DHT22;9269;50.838;12.094;2023-04-24T17:00:10;18.30;25.90